createdAt,value
2022-12-17T00:01:24.071Z,84.03
2022-12-17T00:04:26.576Z,85.87
2022-12-17T00:07:15.635Z,96.20
2022-12-17T00:10:20.591Z,86.53
2022-12-17T00:13:19.443Z,89.40
2022-12-17T00:16:15.446Z,90.20
2022-12-17T00:19:10.054Z,91.13
2022-12-17T00:21:59.181Z,77.30
2022-12-17T00:24:48.192Z,84.57
2022-12-17T00:27:34.310Z,87.37
2022-12-17T00:30:34.660Z,89.40
2022-12-17T00:33:20.392Z,89.80
2022-12-17T00:36:13.539Z,89.37
2022-12-17T00:38:59.442Z,82.70
2022-12-17T00:41:45.115Z,87.30
2022-12-17T00:44:30.696Z,84.13
2022-12-17T00:47:17.007Z,83.53
2022-12-17T00:50:02.788Z,79.07
2022-12-17T00:52:48.461Z,85.90
2022-12-17T00:55:34.408Z,82.00
2022-12-17T00:58:20.461Z,86.17
2022-12-17T01:01:06.482Z,80.70
2022-12-17T01:03:52.214Z,77.40
2022-12-17T01:06:37.964Z,79.47
2022-12-17T01:09:23.629Z,78.57
2022-12-17T01:12:09.309Z,73.03
2022-12-17T01:14:55.068Z,83.20
2022-12-17T01:17:40.998Z,82.87
2022-12-17T01:20:27.198Z,77.70
2022-12-17T01:23:13.105Z,74.03
2022-12-17T01:25:58.980Z,82.53
2022-12-17T01:28:45.172Z,77.57
2022-12-17T01:31:34.907Z,78.10
2022-12-17T01:34:21.022Z,77.87
2022-12-17T01:37:06.913Z,81.87
2022-12-17T01:39:52.707Z,84.93
2022-12-17T01:42:38.374Z,85.37
2022-12-17T01:45:29.158Z,72.73
2022-12-17T01:48:26.975Z,81.77
2022-12-17T01:51:14.684Z,87.80
2022-12-17T01:54:11.964Z,80.97
2022-12-17T01:57:15.580Z,80.23
2022-12-17T02:00:18.119Z,71.23
2022-12-17T02:03:03.922Z,77.77
2022-12-17T02:06:24.641Z,82.37
2022-12-17T02:10:01.004Z,84.40
2022-12-17T02:13:18.007Z,78.70
2022-12-17T02:16:17.343Z,80.37
2022-12-17T02:19:28.211Z,89.53
2022-12-17T02:23:09.979Z,84.83
2022-12-17T02:26:16.664Z,76.93
2022-12-17T02:29:07.785Z,88.93
2022-12-17T02:31:57.848Z,79.10
2022-12-17T02:34:43.550Z,80.73
2022-12-17T02:37:29.564Z,81.10
2022-12-17T02:40:15.516Z,85.63
2022-12-17T02:43:03.894Z,94.40
2022-12-17T02:45:52.130Z,91.13
2022-12-17T02:48:38.116Z,86.77
2022-12-17T02:51:24.005Z,89.23
2022-12-17T02:54:12.540Z,88.50
2022-12-17T02:56:58.338Z,94.20
2022-12-17T02:59:44.040Z,77.47
2022-12-17T03:02:30.163Z,81.47
2022-12-17T03:05:43.493Z,91.70
2022-12-17T03:08:21.856Z,87.87
2022-12-17T03:11:07.829Z,94.40
2022-12-17T03:13:53.646Z,86.50
2022-12-17T03:16:39.559Z,86.53
2022-12-17T03:19:25.751Z,91.37
2022-12-17T03:22:13.312Z,90.03
2022-12-17T03:24:59.347Z,86.73
2022-12-17T03:27:45.593Z,84.77
2022-12-17T03:30:35.796Z,98.70
2022-12-17T03:33:22.223Z,96.10
2022-12-17T03:39:28.114Z,93.50
2022-12-17T03:42:14.429Z,97.77
2022-12-17T03:45:00.490Z,91.00
2022-12-17T03:47:46.668Z,102.07
2022-12-17T03:50:32.329Z,92.10
2022-12-17T03:53:22.488Z,96.70
2022-12-17T03:56:08.091Z,95.80
2022-12-17T03:58:54.085Z,97.90
2022-12-17T04:01:40.494Z,92.67
2022-12-17T04:04:26.405Z,89.20
2022-12-17T04:07:12.092Z,86.37
2022-12-17T04:09:57.957Z,87.53
2022-12-17T04:12:43.789Z,78.87
2022-12-17T04:15:29.439Z,83.63
2022-12-17T04:18:15.141Z,84.30
2022-12-17T04:21:01.021Z,81.77
2022-12-17T04:23:47.008Z,67.30
2022-12-17T04:26:32.897Z,73.77
2022-12-17T04:29:18.426Z,72.37
2022-12-17T04:32:04.429Z,75.43
2022-12-17T04:34:50.245Z,76.10
2022-12-17T04:37:36.029Z,74.37
2022-12-17T04:40:22.414Z,79.90
2022-12-17T04:43:08.113Z,77.40
2022-12-17T04:45:54.093Z,73.03
2022-12-17T04:48:42.421Z,77.17
2022-12-17T04:51:28.478Z,72.73
2022-12-17T04:54:14.046Z,76.27
2022-12-17T04:56:59.895Z,74.70
2022-12-17T04:59:45.583Z,69.53
2022-12-17T05:02:31.500Z,74.47
2022-12-17T05:05:17.296Z,74.03
2022-12-17T05:08:03.102Z,69.40
2022-12-17T05:11:08.776Z,76.57
2022-12-17T05:13:54.268Z,70.80
2022-12-17T05:16:39.995Z,72.77
2022-12-17T05:19:26.049Z,74.90
2022-12-17T05:22:13.316Z,72.07
2022-12-17T05:24:59.289Z,83.07
2022-12-17T05:27:45.266Z,80.27
2022-12-17T05:30:31.148Z,73.07
2022-12-17T05:33:19.495Z,74.33
2022-12-17T05:36:05.278Z,80.43
2022-12-17T05:38:51.727Z,78.77
2022-12-17T05:41:37.503Z,77.93
2022-12-17T05:44:23.455Z,76.83
2022-12-17T05:47:09.292Z,79.83
2022-12-17T05:49:56.403Z,71.33
2022-12-17T05:52:42.548Z,72.13
2022-12-17T05:55:28.504Z,70.10
2022-12-17T05:58:23.366Z,76.17
2022-12-17T06:01:13.838Z,71.90
2022-12-17T06:04:00.418Z,71.97
2022-12-17T06:06:46.233Z,75.50
2022-12-17T06:09:31.878Z,76.90
2022-12-17T06:12:17.901Z,75.27
2022-12-17T06:15:03.557Z,71.80
2022-12-17T06:17:49.302Z,73.00
2022-12-17T06:20:35.176Z,69.23
2022-12-17T06:23:29.499Z,76.97
2022-12-17T06:26:16.367Z,73.30
2022-12-17T06:29:02.380Z,70.13
2022-12-17T06:31:48.304Z,73.33
2022-12-17T06:34:34.029Z,75.63
2022-12-17T06:37:19.844Z,76.03
2022-12-17T06:40:05.494Z,70.93
2022-12-17T06:42:51.415Z,69.47
2022-12-17T06:45:37.304Z,75.17
2022-12-17T06:48:26.007Z,71.97
2022-12-17T06:51:15.117Z,76.93
2022-12-17T06:54:01.325Z,76.10
2022-12-17T06:56:46.984Z,76.63
2022-12-17T06:59:32.794Z,76.20
2022-12-17T07:02:18.769Z,75.77
2022-12-17T07:05:05.365Z,74.23
2022-12-17T07:07:51.381Z,75.43
2022-12-17T07:10:38.128Z,76.23
2022-12-17T07:13:26.122Z,75.27
2022-12-17T07:16:13.297Z,80.53
2022-12-17T07:18:59.360Z,74.97
2022-12-17T07:21:45.507Z,78.53
2022-12-17T07:24:31.622Z,73.30
2022-12-17T07:27:18.374Z,80.47
2022-12-17T07:30:04.478Z,78.50
2022-12-17T07:32:53.570Z,81.03
2022-12-17T07:35:40.174Z,83.73
2022-12-17T07:38:27.556Z,75.67
2022-12-17T07:41:13.825Z,77.10
2022-12-17T07:44:02.505Z,84.00
2022-12-17T07:46:54.250Z,77.67
2022-12-17T07:52:51.255Z,81.63
2022-12-17T07:55:46.846Z,80.93
2022-12-17T07:58:56.156Z,84.97
2022-12-17T08:01:45.691Z,82.77
2022-12-17T08:04:31.648Z,87.73
2022-12-17T08:07:31.430Z,81.53
2022-12-17T08:10:17.452Z,82.63
2022-12-17T08:13:20.426Z,85.90
2022-12-17T08:16:07.473Z,82.23
2022-12-17T08:18:53.767Z,85.17
2022-12-17T08:21:39.785Z,85.60
2022-12-17T08:24:25.814Z,79.97
2022-12-17T08:27:11.754Z,83.37
2022-12-17T08:29:57.696Z,80.83
2022-12-17T08:32:44.306Z,84.23
2022-12-17T08:35:30.054Z,87.40
2022-12-17T08:38:24.019Z,78.40
2022-12-17T08:41:09.722Z,78.50
2022-12-17T08:43:55.004Z,76.77
2022-12-17T08:46:40.778Z,70.70
2022-12-17T08:49:26.280Z,82.50
2022-12-17T08:52:11.646Z,74.73
2022-12-17T08:54:56.955Z,74.03
2022-12-17T08:57:42.778Z,74.70
2022-12-17T09:00:29.878Z,77.73
2022-12-17T09:03:20.671Z,73.90
2022-12-17T09:06:06.373Z,76.77
2022-12-17T09:08:52.281Z,73.87
2022-12-17T09:11:38.115Z,77.53
2022-12-17T09:14:23.618Z,74.60
2022-12-17T09:17:09.514Z,77.10
2022-12-17T09:19:55.231Z,72.20
2022-12-17T09:22:41.001Z,73.60
2022-12-17T09:25:27.101Z,70.97
2022-12-17T09:28:12.742Z,71.20
2022-12-17T09:30:58.911Z,74.40
2022-12-17T09:33:46.502Z,71.27
2022-12-17T09:36:35.361Z,69.83
2022-12-17T09:39:21.213Z,80.47
2022-12-17T09:42:17.185Z,71.47
2022-12-17T09:45:12.118Z,75.80
2022-12-17T09:48:14.574Z,75.07
2022-12-17T09:51:00.822Z,75.43
2022-12-17T09:53:58.357Z,71.43
2022-12-17T09:56:49.255Z,75.57
2022-12-17T09:59:58.353Z,75.53
2022-12-17T10:02:51.318Z,74.13
2022-12-17T10:05:51.201Z,73.93
2022-12-17T10:08:43.538Z,73.77
2022-12-17T10:11:44.824Z,69.90
2022-12-17T10:14:45.104Z,71.73
2022-12-17T10:18:01.531Z,73.20
2022-12-17T10:20:59.167Z,71.10
2022-12-17T10:23:57.250Z,69.07
2022-12-17T10:34:47.645Z,73.97
2022-12-17T10:38:08.980Z,63.57
2022-12-17T10:41:21.236Z,67.37
2022-12-17T10:44:13.120Z,67.10
2022-12-17T10:47:03.975Z,68.27
2022-12-17T10:49:50.276Z,68.00
2022-12-17T10:52:51.316Z,65.53
2022-12-17T10:56:01.082Z,68.20
2022-12-17T10:59:13.957Z,69.30
2022-12-17T11:02:19.596Z,65.53
2022-12-17T11:05:17.126Z,62.27
2022-12-17T11:08:22.887Z,68.87
2022-12-17T11:11:34.162Z,67.60
2022-12-17T11:14:33.132Z,66.67
2022-12-17T11:17:55.185Z,70.20
2022-12-17T11:22:27.533Z,73.53
2022-12-17T11:29:46.520Z,65.90
2022-12-17T11:33:11.854Z,70.50
2022-12-17T11:36:18.923Z,73.73
2022-12-17T11:39:20.504Z,70.43
2022-12-17T11:42:33.472Z,74.13
2022-12-17T11:45:34.066Z,70.20
2022-12-17T11:48:45.143Z,66.77
2022-12-17T11:51:51.293Z,66.67
2022-12-17T11:55:50.018Z,65.27
2022-12-17T11:59:21.442Z,61.07
2022-12-17T12:03:17.542Z,65.50
2022-12-17T12:07:17.729Z,70.10
2022-12-17T12:10:37.171Z,72.63
2022-12-17T12:13:55.159Z,72.00
2022-12-17T12:17:35.311Z,71.70
2022-12-17T12:21:37.351Z,68.77
2022-12-17T12:25:14.478Z,67.83
2022-12-17T12:28:24.780Z,65.17
2022-12-17T12:31:49.173Z,67.97
2022-12-17T12:34:50.284Z,70.73
2022-12-17T12:37:45.450Z,72.40
2022-12-17T12:41:23.800Z,68.10
2022-12-17T12:44:17.825Z,75.03
2022-12-17T12:47:22.980Z,74.90
2022-12-17T12:50:37.984Z,74.37
2022-12-17T12:53:36.702Z,72.53
2022-12-17T13:11:02.495Z,74.87
2022-12-17T13:16:47.939Z,71.20
2022-12-17T13:19:39.970Z,82.53
2022-12-17T13:22:23.351Z,73.13
2022-12-17T13:25:16.765Z,79.83
2022-12-17T13:27:45.429Z,79.60
2022-12-17T13:30:24.148Z,75.43
2022-12-17T13:33:29.821Z,80.00
2022-12-17T13:36:17.004Z,75.50
2022-12-17T13:39:22.676Z,79.43
2022-12-17T13:41:57.039Z,79.50
2022-12-17T13:44:29.936Z,74.93
2022-12-17T13:46:57.213Z,84.80
2022-12-17T13:49:28.162Z,77.57
2022-12-17T13:52:17.087Z,78.10
2022-12-17T13:54:44.902Z,82.77
2022-12-17T13:57:24.731Z,80.07
2022-12-17T14:00:00.211Z,80.23
2022-12-17T14:02:35.226Z,79.93
2022-12-17T14:05:21.204Z,80.63
2022-12-17T14:07:51.237Z,81.43
2022-12-17T14:10:21.776Z,75.83
2022-12-17T14:12:50.150Z,75.13
2022-12-17T14:15:32.154Z,76.30
2022-12-17T14:17:59.984Z,77.73
2022-12-17T14:20:32.417Z,69.20
2022-12-17T14:23:24.259Z,83.13
2022-12-17T14:25:51.590Z,82.07
2022-12-17T14:28:35.655Z,81.57
2022-12-17T14:31:27.512Z,81.27
2022-12-17T14:34:08.140Z,90.10
2022-12-17T14:36:43.884Z,81.60
2022-12-17T14:39:31.587Z,80.10
2022-12-17T14:42:27.147Z,81.30
2022-12-17T14:45:02.024Z,86.10
2022-12-17T14:47:40.570Z,82.47
2022-12-17T14:50:13.834Z,84.47
2022-12-17T14:52:57.696Z,84.90
2022-12-17T14:55:35.529Z,87.30
2022-12-17T14:58:17.961Z,79.73
2022-12-17T15:00:56.600Z,85.23
2022-12-17T15:03:38.872Z,87.10
2022-12-17T15:06:21.020Z,83.23
2022-12-17T15:09:00.414Z,93.47
2022-12-17T15:11:28.574Z,90.33
2022-12-17T15:13:56.892Z,83.37
2022-12-17T15:16:37.405Z,81.47
2022-12-17T15:19:16.561Z,83.43
2022-12-17T15:21:47.693Z,82.50
2022-12-17T15:24:27.138Z,81.53
2022-12-17T15:27:00.606Z,101.67
2022-12-17T15:29:40.652Z,79.87
2022-12-17T15:32:20.987Z,87.40
2022-12-17T15:35:00.091Z,85.23
2022-12-17T15:37:30.976Z,89.67
2022-12-17T15:40:01.762Z,90.30
2022-12-17T15:42:48.852Z,87.13
2022-12-17T15:45:38.856Z,84.53
2022-12-17T15:48:06.328Z,86.17
2022-12-17T15:50:34.042Z,84.73
2022-12-17T15:53:10.624Z,83.77
2022-12-17T15:55:39.217Z,76.17
2022-12-17T15:58:11.297Z,72.77
2022-12-17T16:00:39.213Z,74.43
2022-12-17T16:03:06.570Z,77.70
2022-12-17T16:05:33.949Z,71.00
2022-12-17T16:08:02.728Z,77.60
2022-12-17T16:10:30.854Z,79.17
2022-12-17T16:12:58.557Z,77.23
2022-12-17T16:15:28.457Z,84.90
2022-12-17T16:17:56.371Z,75.77
2022-12-17T16:20:27.625Z,89.13
2022-12-17T16:23:02.357Z,90.77
2022-12-17T16:25:32.840Z,88.50
2022-12-17T16:28:00.005Z,89.60
2022-12-17T16:30:27.369Z,82.07
2022-12-17T16:32:59.978Z,96.27
2022-12-17T16:35:31.036Z,91.03
2022-12-17T16:37:58.154Z,86.60
2022-12-17T16:40:25.269Z,90.90
2022-12-17T16:42:52.444Z,89.53
2022-12-17T16:45:19.969Z,83.23
2022-12-17T16:47:47.428Z,85.70
2022-12-17T16:50:16.924Z,95.70
2022-12-17T16:52:47.757Z,91.43
2022-12-17T16:55:14.966Z,85.60
2022-12-17T16:57:42.441Z,91.20
2022-12-17T17:00:11.031Z,90.50
2022-12-17T17:02:49.940Z,90.40
2022-12-17T17:05:20.081Z,90.20
2022-12-17T17:07:47.362Z,92.53
2022-12-17T17:10:14.618Z,97.37
2022-12-17T17:12:42.071Z,96.67
2022-12-17T17:15:10.169Z,91.80
2022-12-17T17:17:55.703Z,89.77
2022-12-17T17:20:24.420Z,100.67
2022-12-17T17:22:51.529Z,96.57
2022-12-17T17:25:18.635Z,109.57
2022-12-17T17:27:45.671Z,113.07
2022-12-17T17:30:13.463Z,114.77
2022-12-17T17:32:40.569Z,104.83
2022-12-17T17:35:08.305Z,94.93
2022-12-17T17:37:35.459Z,101.33
2022-12-17T17:40:03.211Z,101.13
2022-12-17T17:42:30.309Z,100.97
2022-12-17T17:45:00.319Z,94.03
2022-12-17T17:47:30.174Z,90.30
2022-12-17T17:49:57.442Z,91.73
2022-12-17T17:52:24.571Z,102.30
2022-12-17T17:54:51.695Z,100.07
2022-12-17T17:57:18.801Z,101.17
2022-12-17T17:59:45.945Z,95.20
2022-12-17T18:02:13.956Z,101.97
2022-12-17T18:04:41.507Z,95.23
2022-12-17T18:07:24.734Z,101.20
2022-12-17T18:09:52.290Z,129.30
2022-12-17T18:12:38.195Z,109.43
2022-12-17T18:15:15.707Z,99.70
2022-12-17T18:17:46.382Z,125.90
2022-12-17T18:20:14.130Z,120.53
2022-12-17T18:22:41.386Z,126.17
2022-12-17T18:25:08.852Z,129.00
2022-12-17T18:27:36.111Z,109.37
2022-12-17T18:30:04.321Z,112.97
2022-12-17T18:32:31.764Z,81.20
2022-12-17T18:34:59.115Z,111.33
2022-12-17T18:37:26.595Z,105.17
2022-12-17T18:39:53.739Z,90.83
2022-12-17T18:42:39.428Z,87.40
2022-12-17T18:45:10.189Z,115.17
2022-12-17T18:47:37.447Z,89.70
2022-12-17T18:50:12.603Z,88.03
2022-12-17T18:52:39.962Z,87.97
2022-12-17T18:55:08.737Z,88.87
2022-12-17T18:57:36.014Z,101.17
2022-12-17T19:00:04.065Z,104.40
2022-12-17T19:02:34.752Z,107.97
2022-12-17T19:05:02.295Z,98.33
2022-12-17T19:07:29.620Z,100.03
2022-12-17T19:09:57.197Z,91.27
2022-12-17T19:12:24.452Z,99.50
2022-12-17T19:14:52.188Z,98.97
2022-12-17T19:17:19.629Z,98.57
2022-12-17T19:19:48.573Z,99.07
2022-12-17T19:22:15.789Z,96.13
2022-12-17T19:24:43.130Z,91.70
2022-12-17T19:27:10.253Z,106.30
2022-12-17T19:29:37.535Z,99.63
2022-12-17T19:32:05.091Z,102.67
2022-12-17T19:34:34.990Z,93.77
2022-12-17T19:37:02.206Z,83.73
2022-12-17T19:39:29.319Z,74.27
2022-12-17T19:41:59.025Z,89.47
2022-12-17T19:44:27.181Z,82.17
2022-12-17T19:46:54.651Z,85.13
2022-12-17T19:49:21.803Z,78.37
2022-12-17T19:51:49.012Z,80.37
2022-12-17T19:54:16.242Z,89.73
2022-12-17T19:56:45.105Z,92.07
2022-12-17T19:59:13.841Z,90.63
2022-12-17T20:01:45.746Z,96.40
2022-12-17T20:04:16.036Z,82.73
2022-12-17T20:06:45.077Z,83.10
2022-12-17T20:09:13.421Z,84.40
2022-12-17T20:11:41.250Z,75.63
2022-12-17T20:14:16.269Z,73.73
2022-12-17T20:16:47.436Z,72.00
2022-12-17T20:19:18.616Z,71.50
2022-12-17T20:21:46.402Z,69.40
2022-12-17T20:24:15.124Z,77.43
2022-12-17T20:26:44.001Z,78.73
2022-12-17T20:29:11.887Z,80.90
2022-12-17T20:31:39.276Z,66.50
2022-12-17T20:34:08.715Z,67.37
2022-12-17T20:36:39.695Z,66.93
2022-12-17T20:39:08.575Z,72.60
2022-12-17T20:41:40.386Z,68.90
2022-12-17T20:44:13.837Z,70.20
2022-12-17T20:46:42.768Z,69.00
2022-12-17T20:49:13.046Z,57.83
2022-12-17T20:51:46.362Z,65.83
2022-12-17T20:54:13.840Z,66.50
2022-12-17T20:56:46.653Z,65.83
2022-12-17T20:59:19.444Z,59.47
2022-12-17T21:01:56.693Z,58.80
2022-12-17T21:04:24.960Z,66.90
2022-12-17T21:06:53.190Z,64.90
2022-12-17T21:09:25.514Z,67.00
2022-12-17T21:12:05.453Z,69.20
2022-12-17T21:14:35.693Z,63.47
2022-12-17T21:17:05.111Z,71.07
2022-12-17T21:19:40.790Z,57.23
2022-12-17T21:22:20.461Z,63.57
2022-12-17T21:24:57.973Z,64.63
2022-12-17T21:27:25.731Z,58.73
2022-12-17T21:29:59.737Z,68.10
2022-12-17T21:35:45.326Z,67.00
2022-12-17T21:38:35.467Z,64.70
2022-12-17T21:41:29.088Z,63.67
2022-12-17T21:44:42.817Z,64.83
2022-12-17T21:50:33.434Z,62.77
2022-12-17T21:53:08.375Z,64.43
2022-12-17T21:55:42.515Z,67.23
2022-12-17T21:58:22.495Z,69.50
2022-12-17T22:00:53.166Z,78.90
2022-12-17T22:03:29.315Z,66.93
2022-12-17T22:06:05.138Z,65.23
2022-12-17T22:08:50.091Z,64.30
2022-12-17T22:11:40.774Z,63.17
2022-12-17T22:17:12.975Z,64.53
2022-12-17T22:19:52.689Z,56.70
2022-12-17T22:22:39.924Z,61.43
2022-12-17T22:25:12.635Z,62.57
2022-12-17T22:27:47.822Z,64.63
2022-12-17T22:30:41.242Z,61.97
2022-12-17T22:33:47.500Z,54.97
2022-12-17T22:38:11.776Z,55.33
2022-12-17T22:41:48.319Z,56.47
2022-12-17T22:44:46.464Z,58.20
2022-12-17T22:45:14.908Z,55.50
2022-12-17T22:47:45.458Z,57.20
2022-12-17T22:50:12.888Z,59.70
2022-12-17T22:52:40.726Z,59.77
2022-12-17T22:55:11.321Z,55.67
2022-12-17T22:57:42.215Z,58.63
2022-12-17T23:00:33.236Z,62.27
2022-12-17T23:03:01.117Z,57.23
2022-12-17T23:05:32.504Z,55.50
2022-12-17T23:08:00.488Z,61.53
2022-12-17T23:10:28.642Z,55.30
2022-12-17T23:12:56.647Z,59.43
2022-12-17T23:15:33.515Z,59.37
2022-12-17T23:18:07.400Z,61.27
2022-12-17T23:20:36.393Z,58.80
2022-12-17T23:23:06.221Z,59.30
2022-12-17T23:25:36.449Z,56.80
2022-12-17T23:28:04.323Z,56.13
2022-12-17T23:30:31.902Z,61.73
2022-12-17T23:32:59.387Z,55.63
2022-12-17T23:35:27.000Z,53.83
2022-12-17T23:38:32.372Z,54.27
2022-12-17T23:41:46.324Z,50.43
2022-12-17T23:44:51.351Z,55.27
2022-12-17T23:47:26.937Z,55.53
2022-12-17T23:49:54.467Z,54.10
2022-12-17T23:52:24.625Z,53.63
